SDM601 UWGG-UWKD
Flight info
| Callsign | SDM601 |
|---|---|
| Flight time | 0h 36m |
| Altitude | 25000 |
| Route | PESAB2S PESAB T765 NAMER L94 UNORO T788 KOROM KOROM1R |
| Aircraft | A320/M-SDE3FGHIRWY/LB1 |
Departure
| Time | 2026-05-05 19:40 |
|---|---|
| Airport | Nizhny Novgorod / Strigino International Airport (UWGG) |
Arrival
| Time | 2026-05-05 20:16 |
|---|---|
| Airport | Kazan International Airport (UWKD) |
| Time | Latitude | Longitude | Altitude | Speed | Heading |
|---|---|---|---|---|---|
| 2026-05-05 19:34 | 56.21947 | 43.78819 | 266 ft | 0 kts | 101° |
| 2026-05-05 19:34 | 56.21947 | 43.78817 | 266 ft | 2 kts | 101° |
| 2026-05-05 19:34 | 56.21951 | 43.78788 | 266 ft | 2 kts | 103° |
| 2026-05-05 19:35 | 56.21962 | 43.78733 | 266 ft | 2 kts | 135° |
| 2026-05-05 19:35 | 56.21976 | 43.78720 | 266 ft | 2 kts | 187° |
| 2026-05-05 19:35 | 56.21980 | 43.78721 | 266 ft | 0 kts | 189° |
| 2026-05-05 19:36 | 56.21936 | 43.78691 | 286 ft | 12 kts | 217° |
| 2026-05-05 19:36 | 56.21878 | 43.78598 | 266 ft | 12 kts | 199° |
| 2026-05-05 19:37 | 56.21774 | 43.78559 | 266 ft | 16 kts | 192° |
| 2026-05-05 19:37 | 56.21657 | 43.78516 | 266 ft | 18 kts | 191° |
| 2026-05-05 19:37 | 56.21532 | 43.78470 | 266 ft | 19 kts | 191° |
| 2026-05-05 19:37 | 56.21490 | 43.78287 | 266 ft | 15 kts | 283° |
| 2026-05-05 19:38 | 56.21491 | 43.78276 | 267 ft | 0 kts | 283° |
| 2026-05-05 19:38 | 56.21508 | 43.78135 | 267 ft | 25 kts | 282° |
| 2026-05-05 19:38 | 56.21548 | 43.78058 | 268 ft | 0 kts | 10° |
| 2026-05-05 19:39 | 56.21619 | 43.78081 | 269 ft | 39 kts | 11° |
| 2026-05-05 19:39 | 56.22132 | 43.78267 | 267 ft | 108 kts | 12° |
| 2026-05-05 19:39 | 56.23071 | 43.78607 | 273 ft | 161 kts | 11° |
| 2026-05-05 19:39 | 56.24206 | 43.79032 | 725 ft | 170 kts | 11° |
| 2026-05-05 19:40 | 56.25383 | 43.79468 | 1346 ft | 173 kts | 8° |
| 2026-05-05 19:40 | 56.26581 | 43.79908 | 2014 ft | 177 kts | 7° |
| 2026-05-05 19:40 | 56.27863 | 43.80369 | 2319 ft | 199 kts | 7° |
| 2026-05-05 19:40 | 56.29288 | 43.80881 | 2596 ft | 224 kts | 7° |
| 2026-05-05 19:41 | 56.30898 | 43.81463 | 2988 ft | 248 kts | 7° |
| 2026-05-05 19:41 | 56.32656 | 43.82104 | 3536 ft | 264 kts | 8° |
| 2026-05-05 19:41 | 56.34485 | 43.82780 | 4349 ft | 271 kts | 7° |
| 2026-05-05 19:41 | 56.36353 | 43.83486 | 5177 ft | 278 kts | 10° |
| 2026-05-05 19:42 | 56.38136 | 43.84982 | 6001 ft | 292 kts | 34° |
| 2026-05-05 19:42 | 56.39452 | 43.87849 | 6786 ft | 305 kts | 63° |
| 2026-05-05 19:42 | 56.39921 | 43.91582 | 7560 ft | 310 kts | 94° |
| 2026-05-05 19:42 | 56.39390 | 43.95302 | 8344 ft | 307 kts | 123° |
| 2026-05-05 19:43 | 56.38261 | 43.98566 | 9190 ft | 307 kts | 128° |
| 2026-05-05 19:43 | 56.37097 | 44.01818 | 10012 ft | 310 kts | 128° |
| 2026-05-05 19:43 | 56.35885 | 44.05189 | 10342 ft | 332 kts | 127° |
| 2026-05-05 19:43 | 56.34584 | 44.08809 | 10663 ft | 351 kts | 127° |
| 2026-05-05 19:44 | 56.33249 | 44.12547 | 11307 ft | 358 kts | 126° |
| 2026-05-05 19:44 | 56.31900 | 44.16349 | 12024 ft | 362 kts | 126° |
| 2026-05-05 19:44 | 56.30536 | 44.20191 | 12746 ft | 366 kts | 126° |
| 2026-05-05 19:44 | 56.29155 | 44.24078 | 13471 ft | 370 kts | 126° |
| 2026-05-05 19:45 | 56.27759 | 44.27997 | 14112 ft | 374 kts | 126° |
| 2026-05-05 19:45 | 56.26343 | 44.31948 | 14735 ft | 378 kts | 125° |
| 2026-05-05 19:45 | 56.25423 | 44.34621 | 15144 ft | 381 kts | 120° |
| 2026-05-05 19:45 | 56.24530 | 44.39144 | 15744 ft | 388 kts | 101° |
| 2026-05-05 19:46 | 56.24131 | 44.43970 | 16357 ft | 392 kts | 98° |
| 2026-05-05 19:46 | 56.23759 | 44.48844 | 16957 ft | 396 kts | 98° |
| 2026-05-05 19:46 | 56.23265 | 44.55394 | 17747 ft | 401 kts | 98° |
| 2026-05-05 19:46 | 56.22883 | 44.60388 | 18304 ft | 405 kts | 98° |
| 2026-05-05 19:47 | 56.22621 | 44.63795 | 18656 ft | 408 kts | 98° |
| 2026-05-05 19:47 | 56.22226 | 44.68861 | 19184 ft | 411 kts | 99° |
| 2026-05-05 19:47 | 56.21822 | 44.73966 | 19712 ft | 414 kts | 99° |
| 2026-05-05 19:47 | 56.21410 | 44.79104 | 20239 ft | 417 kts | 99° |
| 2026-05-05 19:48 | 56.20996 | 44.84220 | 20755 ft | 421 kts | 99° |
| 2026-05-05 19:48 | 56.20573 | 44.89441 | 21285 ft | 424 kts | 99° |
| 2026-05-05 19:48 | 56.20145 | 44.94702 | 21807 ft | 427 kts | 99° |
| 2026-05-05 19:48 | 56.19711 | 45.00002 | 22310 ft | 430 kts | 99° |
| 2026-05-05 19:49 | 56.19275 | 45.05319 | 22897 ft | 431 kts | 99° |
| 2026-05-05 19:49 | 56.18837 | 45.10656 | 23413 ft | 434 kts | 99° |
| 2026-05-05 19:49 | 56.18394 | 45.16033 | 23834 ft | 436 kts | 99° |
| 2026-05-05 19:49 | 56.17945 | 45.21433 | 24248 ft | 439 kts | 99° |
| 2026-05-05 19:50 | 56.17493 | 45.26856 | 24655 ft | 441 kts | 99° |
| 2026-05-05 19:50 | 56.17036 | 45.32303 | 24811 ft | 441 kts | 99° |
| 2026-05-05 19:50 | 56.16577 | 45.37754 | 24848 ft | 431 kts | 99° |
| 2026-05-05 19:50 | 56.16131 | 45.43040 | 24851 ft | 427 kts | 99° |
| 2026-05-05 19:51 | 56.15680 | 45.48307 | 24852 ft | 426 kts | 100° |
| 2026-05-05 19:51 | 56.15231 | 45.53488 | 24852 ft | 426 kts | 100° |
| 2026-05-05 19:51 | 56.14774 | 45.58732 | 24852 ft | 426 kts | 100° |
| 2026-05-05 19:51 | 56.14309 | 45.64041 | 24852 ft | 426 kts | 100° |
| 2026-05-05 19:52 | 56.13853 | 45.69226 | 24852 ft | 425 kts | 100° |
| 2026-05-05 19:52 | 56.13394 | 45.74446 | 24862 ft | 423 kts | 99° |
| 2026-05-05 19:52 | 56.12936 | 45.79649 | 24860 ft | 422 kts | 99° |
| 2026-05-05 19:52 | 56.12471 | 45.84918 | 24857 ft | 422 kts | 99° |
| 2026-05-05 19:53 | 56.12010 | 45.90113 | 24857 ft | 422 kts | 100° |
| 2026-05-05 19:53 | 56.11546 | 45.95303 | 24862 ft | 422 kts | 100° |
| 2026-05-05 19:53 | 56.11079 | 46.00500 | 24866 ft | 422 kts | 100° |
| 2026-05-05 19:53 | 56.10611 | 46.05677 | 24838 ft | 423 kts | 100° |
| 2026-05-05 19:54 | 56.10137 | 46.10878 | 24875 ft | 423 kts | 100° |
| 2026-05-05 19:54 | 56.09660 | 46.16082 | 24862 ft | 423 kts | 100° |
| 2026-05-05 19:54 | 56.09185 | 46.21277 | 24863 ft | 423 kts | 100° |
| 2026-05-05 19:54 | 56.08707 | 46.26481 | 24863 ft | 423 kts | 100° |
| 2026-05-05 19:55 | 56.08227 | 46.31672 | 24746 ft | 419 kts | 100° |
| 2026-05-05 19:55 | 56.07753 | 46.36762 | 24491 ft | 410 kts | 100° |
| 2026-05-05 19:55 | 56.07290 | 46.41682 | 24253 ft | 402 kts | 100° |
| 2026-05-05 19:55 | 56.06826 | 46.46600 | 24015 ft | 398 kts | 100° |
| 2026-05-05 19:56 | 56.06301 | 46.51445 | 23789 ft | 395 kts | 106° |
| 2026-05-05 19:56 | 56.05423 | 46.56086 | 23558 ft | 393 kts | 112° |
| 2026-05-05 19:56 | 56.04445 | 46.60643 | 23305 ft | 391 kts | 112° |
| 2026-05-05 19:56 | 56.03476 | 46.65182 | 23029 ft | 390 kts | 112° |
| 2026-05-05 19:57 | 56.02510 | 46.69722 | 22755 ft | 388 kts | 112° |
| 2026-05-05 19:57 | 56.01551 | 46.74218 | 22488 ft | 387 kts | 112° |
| 2026-05-05 19:57 | 56.00590 | 46.78697 | 22216 ft | 385 kts | 112° |
| 2026-05-05 19:57 | 55.99629 | 46.83167 | 21952 ft | 384 kts | 112° |
| 2026-05-05 19:58 | 55.98674 | 46.87605 | 21686 ft | 382 kts | 112° |
| 2026-05-05 19:58 | 55.97721 | 46.92026 | 21424 ft | 381 kts | 112° |
| 2026-05-05 19:58 | 55.96769 | 46.96424 | 21162 ft | 379 kts | 112° |
| 2026-05-05 19:58 | 55.95829 | 47.00750 | 20908 ft | 377 kts | 112° |
| 2026-05-05 19:59 | 55.94881 | 47.05100 | 20651 ft | 376 kts | 112° |
| 2026-05-05 19:59 | 55.93919 | 47.09492 | 20398 ft | 374 kts | 112° |
| 2026-05-05 19:59 | 55.92984 | 47.13756 | 20150 ft | 373 kts | 112° |
| 2026-05-05 19:59 | 55.92042 | 47.18053 | 19912 ft | 372 kts | 112° |
| 2026-05-05 20:00 | 55.91104 | 47.22343 | 19664 ft | 370 kts | 112° |
| 2026-05-05 20:00 | 55.90169 | 47.26613 | 19419 ft | 369 kts | 112° |
| 2026-05-05 20:00 | 55.89233 | 47.30868 | 19180 ft | 368 kts | 112° |
| 2026-05-05 20:00 | 55.88296 | 47.35117 | 18935 ft | 367 kts | 112° |
| 2026-05-05 20:01 | 55.87363 | 47.39343 | 18694 ft | 366 kts | 112° |
| 2026-05-05 20:01 | 55.86432 | 47.43555 | 18462 ft | 364 kts | 112° |
| 2026-05-05 20:01 | 55.85503 | 47.47748 | 18230 ft | 363 kts | 112° |
| 2026-05-05 20:01 | 55.84574 | 47.51927 | 17964 ft | 362 kts | 112° |
| 2026-05-05 20:02 | 55.83646 | 47.56088 | 17698 ft | 359 kts | 112° |
| 2026-05-05 20:02 | 55.82743 | 47.60131 | 17366 ft | 354 kts | 112° |
| 2026-05-05 20:02 | 55.81833 | 47.64198 | 16953 ft | 353 kts | 112° |
| 2026-05-05 20:02 | 55.80929 | 47.68237 | 16538 ft | 351 kts | 112° |
| 2026-05-05 20:03 | 55.80025 | 47.72261 | 16141 ft | 349 kts | 112° |
| 2026-05-05 20:03 | 55.79125 | 47.76259 | 15737 ft | 348 kts | 112° |
| 2026-05-05 20:03 | 55.78224 | 47.80251 | 15342 ft | 347 kts | 112° |
| 2026-05-05 20:03 | 55.77327 | 47.84219 | 14943 ft | 346 kts | 112° |
| 2026-05-05 20:04 | 55.76433 | 47.88172 | 14542 ft | 345 kts | 112° |
| 2026-05-05 20:04 | 55.75538 | 47.92125 | 14144 ft | 344 kts | 112° |
| 2026-05-05 20:04 | 55.74647 | 47.96059 | 13740 ft | 343 kts | 112° |
| 2026-05-05 20:04 | 55.73758 | 47.99978 | 13308 ft | 342 kts | 112° |
| 2026-05-05 20:05 | 55.72868 | 48.03883 | 12908 ft | 339 kts | 112° |
| 2026-05-05 20:05 | 55.71985 | 48.07750 | 12501 ft | 337 kts | 112° |
| 2026-05-05 20:05 | 55.71106 | 48.11586 | 12102 ft | 334 kts | 112° |
| 2026-05-05 20:05 | 55.70230 | 48.15405 | 11692 ft | 332 kts | 112° |
| 2026-05-05 20:06 | 55.69362 | 48.19188 | 11289 ft | 330 kts | 112° |
| 2026-05-05 20:06 | 55.68498 | 48.22950 | 10882 ft | 328 kts | 112° |
| 2026-05-05 20:06 | 55.67638 | 48.26684 | 10475 ft | 327 kts | 112° |
| 2026-05-05 20:06 | 55.66781 | 48.30398 | 10105 ft | 324 kts | 112° |
| 2026-05-05 20:07 | 55.65953 | 48.33979 | 9983 ft | 313 kts | 112° |
| 2026-05-05 20:07 | 55.65139 | 48.37488 | 9782 ft | 305 kts | 112° |
| 2026-05-05 20:07 | 55.64332 | 48.40969 | 9347 ft | 305 kts | 112° |
| 2026-05-05 20:07 | 55.63533 | 48.44425 | 8938 ft | 304 kts | 112° |
| 2026-05-05 20:08 | 55.62817 | 48.47914 | 8591 ft | 300 kts | 104° |
| 2026-05-05 20:08 | 55.62558 | 48.51578 | 8179 ft | 299 kts | 89° |
| 2026-05-05 20:08 | 55.62603 | 48.55255 | 7766 ft | 298 kts | 88° |
| 2026-05-05 20:08 | 55.62648 | 48.58884 | 7342 ft | 297 kts | 88° |
| 2026-05-05 20:09 | 55.62689 | 48.62530 | 6968 ft | 295 kts | 88° |
| 2026-05-05 20:09 | 55.62737 | 48.66155 | 6521 ft | 295 kts | 86° |
| 2026-05-05 20:09 | 55.63217 | 48.69651 | 6134 ft | 292 kts | 65° |
| 2026-05-05 20:09 | 55.64045 | 48.72872 | 5708 ft | 291 kts | 64° |
| 2026-05-05 20:10 | 55.64888 | 48.76122 | 5275 ft | 290 kts | 64° |
| 2026-05-05 20:10 | 55.65733 | 48.79367 | 4862 ft | 289 kts | 64° |
| 2026-05-05 20:10 | 55.66577 | 48.82599 | 4379 ft | 290 kts | 64° |
| 2026-05-05 20:10 | 55.67437 | 48.85892 | 3590 ft | 294 kts | 65° |
| 2026-05-05 20:11 | 55.68279 | 48.89137 | 3176 ft | 280 kts | 65° |
| 2026-05-05 20:11 | 55.69049 | 48.92118 | 3025 ft | 259 kts | 65° |
| 2026-05-05 20:11 | 55.69783 | 48.94960 | 2899 ft | 247 kts | 65° |
| 2026-05-05 20:11 | 55.70394 | 48.97726 | 2801 ft | 236 kts | 78° |
| 2026-05-05 20:12 | 55.70491 | 49.00538 | 2700 ft | 223 kts | 99° |
| 2026-05-05 20:12 | 55.70088 | 49.03120 | 2560 ft | 212 kts | 118° |
| 2026-05-05 20:12 | 55.69339 | 49.05274 | 2407 ft | 200 kts | 128° |
| 2026-05-05 20:12 | 55.68573 | 49.07269 | 2244 ft | 191 kts | 128° |
| 2026-05-05 20:13 | 55.67851 | 49.09149 | 2111 ft | 176 kts | 128° |
| 2026-05-05 20:13 | 55.67194 | 49.10862 | 2003 ft | 161 kts | 129° |
| 2026-05-05 20:13 | 55.66575 | 49.12467 | 1946 ft | 156 kts | 129° |
| 2026-05-05 20:13 | 55.65972 | 49.14032 | 1810 ft | 153 kts | 129° |
| 2026-05-05 20:14 | 55.65370 | 49.15582 | 1662 ft | 152 kts | 131° |
| 2026-05-05 20:14 | 55.64763 | 49.17116 | 1468 ft | 151 kts | 128° |
| 2026-05-05 20:14 | 55.64183 | 49.18691 | 1335 ft | 150 kts | 128° |
| 2026-05-05 20:14 | 55.63599 | 49.20201 | 1107 ft | 147 kts | 127° |
| 2026-05-05 20:15 | 55.63041 | 49.21659 | 913 ft | 143 kts | 126° |
| 2026-05-05 20:15 | 55.62483 | 49.23098 | 733 ft | 140 kts | 126° |
| 2026-05-05 20:15 | 55.61924 | 49.24533 | 559 ft | 139 kts | 127° |
| 2026-05-05 20:15 | 55.61380 | 49.25924 | 424 ft | 132 kts | 126° |
| 2026-05-05 20:16 | 55.60929 | 49.27070 | 413 ft | 90 kts | 124° |
| 2026-05-05 20:16 | 55.60674 | 49.27730 | 412 ft | 41 kts | 124° |